createdAt,value
2018-04-08T00:00:31.765Z,14.68
2018-04-08T00:01:32.444Z,14.64
2018-04-08T00:02:31.772Z,14.70
2018-04-08T00:03:32.367Z,14.69
2018-04-08T00:04:31.809Z,14.61
2018-04-08T00:05:31.880Z,14.70
2018-04-08T00:06:31.755Z,14.62
2018-04-08T00:07:31.687Z,14.62
2018-04-08T00:08:31.686Z,14.65
2018-04-08T00:09:31.662Z,14.64
2018-04-08T00:10:31.663Z,14.69
2018-04-08T00:11:31.677Z,14.60
2018-04-08T00:12:31.700Z,14.65
2018-04-08T00:13:31.655Z,14.62
2018-04-08T00:14:31.644Z,14.61
2018-04-08T00:15:31.591Z,14.55
2018-04-08T00:16:31.645Z,14.52
2018-04-08T00:17:31.599Z,14.54
2018-04-08T00:18:31.587Z,14.60
2018-04-08T00:19:32.249Z,14.62
2018-04-08T00:20:31.590Z,14.61
2018-04-08T00:21:31.625Z,14.60
2018-04-08T00:22:31.527Z,14.52
2018-04-08T00:23:31.532Z,14.57
2018-04-08T00:24:31.527Z,14.62
2018-04-08T00:25:31.536Z,14.61
2018-04-08T00:26:31.545Z,14.52
2018-04-08T00:27:31.931Z,14.57
2018-04-08T00:28:31.488Z,14.55
2018-04-08T00:29:31.489Z,14.45
2018-04-08T00:30:31.485Z,14.51
2018-04-08T00:31:31.464Z,14.55
2018-04-08T00:32:31.473Z,14.43
2018-04-08T00:33:32.302Z,14.52
2018-04-08T00:34:31.452Z,14.45
2018-04-08T00:35:31.420Z,14.39
2018-04-08T00:36:31.412Z,14.40
2018-04-08T00:37:31.400Z,14.37
2018-04-08T00:38:31.766Z,14.33
2018-04-08T00:39:31.479Z,14.36
2018-04-08T00:40:32.316Z,14.39
2018-04-08T00:41:31.380Z,14.43
2018-04-08T00:42:31.363Z,14.36
2018-04-08T00:43:31.350Z,14.36
2018-04-08T00:44:32.286Z,14.47
2018-04-08T00:45:31.316Z,14.39
2018-04-08T00:46:31.304Z,14.35
2018-04-08T00:47:31.297Z,14.39
2018-04-08T00:48:31.327Z,14.43
2018-04-08T00:49:31.331Z,14.28
2018-04-08T00:50:31.299Z,14.37
2018-04-08T00:51:31.242Z,14.29
2018-04-08T00:52:31.256Z,14.35
2018-04-08T00:53:31.256Z,14.29
2018-04-08T00:54:31.242Z,14.35
2018-04-08T00:55:31.241Z,14.27
2018-04-08T00:56:31.349Z,14.24
2018-04-08T00:57:31.212Z,14.22
2018-04-08T00:58:31.181Z,14.20
2018-04-08T00:59:31.173Z,14.24
2018-04-08T01:00:31.188Z,14.24
2018-04-08T01:01:31.175Z,14.32
2018-04-08T01:02:31.182Z,14.24
2018-04-08T01:03:31.131Z,14.27
2018-04-08T01:04:31.162Z,14.29
2018-04-08T01:05:31.154Z,14.27
2018-04-08T01:06:31.131Z,14.22
2018-04-08T01:07:31.111Z,14.27
2018-04-08T01:08:31.366Z,14.28
2018-04-08T01:09:31.104Z,14.28
2018-04-08T01:10:31.133Z,14.33
2018-04-08T01:11:31.086Z,14.27
2018-04-08T01:12:31.087Z,14.32
2018-04-08T01:13:31.103Z,14.33
2018-04-08T01:14:31.070Z,14.24
2018-04-08T01:15:31.016Z,14.18
2018-04-08T01:16:31.044Z,14.20
2018-04-08T01:17:31.052Z,14.18
2018-04-08T01:18:30.979Z,14.21
2018-04-08T01:19:31.030Z,14.15
2018-04-08T01:20:30.952Z,14.17
2018-04-08T01:21:31.012Z,14.17
2018-04-08T01:22:30.953Z,14.18
2018-04-08T01:23:30.943Z,14.20
2018-04-08T01:24:31.352Z,14.12
2018-04-08T01:25:30.928Z,14.20
2018-04-08T01:26:30.891Z,14.17
2018-04-08T01:27:30.899Z,14.24
2018-04-08T01:28:32.811Z,14.14
2018-04-08T01:29:30.962Z,14.15
2018-04-08T01:30:30.872Z,14.14
2018-04-08T01:31:30.840Z,14.10
2018-04-08T01:32:31.840Z,14.06
2018-04-08T01:33:30.862Z,14.09
2018-04-08T01:34:30.824Z,14.09
2018-04-08T01:35:30.866Z,14.12
2018-04-08T01:36:30.812Z,14.09
2018-04-08T01:37:30.801Z,14.02
2018-04-08T01:38:30.759Z,14.02
2018-04-08T01:39:30.786Z,13.95
2018-04-08T01:40:30.808Z,14.02
2018-04-08T01:41:30.857Z,13.95
2018-04-08T01:42:30.775Z,13.89
2018-04-08T01:43:30.742Z,13.91
2018-04-08T01:44:30.698Z,14.00
2018-04-08T01:45:30.701Z,13.89
2018-04-08T01:46:30.740Z,13.89
2018-04-08T01:47:30.692Z,13.89
2018-04-08T01:48:30.671Z,13.78
2018-04-08T01:49:30.663Z,13.85
2018-04-08T01:50:30.659Z,13.85
2018-04-08T01:51:31.032Z,13.77
2018-04-08T01:52:30.638Z,13.71
2018-04-08T01:53:30.611Z,13.75
2018-04-08T01:54:30.600Z,13.77
2018-04-08T01:55:30.604Z,13.79
2018-04-08T01:56:30.624Z,13.75
2018-04-08T01:57:30.851Z,13.73
2018-04-08T01:58:30.594Z,13.78
2018-04-08T01:59:30.575Z,13.75
2018-04-08T02:00:30.576Z,13.84
2018-04-08T02:01:30.577Z,13.75
2018-04-08T02:02:30.656Z,13.78
2018-04-08T02:03:30.535Z,13.85
2018-04-08T02:04:30.526Z,13.84
2018-04-08T02:05:30.505Z,13.87
2018-04-08T02:06:30.516Z,13.75
2018-04-08T02:07:30.494Z,13.88
2018-04-08T02:08:30.546Z,13.85
2018-04-08T02:09:30.487Z,13.81
2018-04-08T02:10:31.346Z,13.88
2018-04-08T02:11:30.475Z,13.82
2018-04-08T02:12:30.422Z,13.87
2018-04-08T02:13:30.531Z,13.88
2018-04-08T02:14:30.428Z,13.85
2018-04-08T02:15:30.430Z,13.87
2018-04-08T02:16:30.834Z,13.91
2018-04-08T02:17:30.396Z,13.87
2018-04-08T02:18:30.383Z,13.71
2018-04-08T02:19:30.411Z,13.73
2018-04-08T02:20:30.845Z,13.85
2018-04-08T02:21:30.326Z,13.77
2018-04-08T02:22:31.351Z,13.75
2018-04-08T02:23:30.336Z,13.77
2018-04-08T02:24:30.307Z,13.75
2018-04-08T02:25:30.282Z,13.67
2018-04-08T02:26:30.279Z,13.66
2018-04-08T02:27:30.314Z,13.62
2018-04-08T02:28:30.249Z,13.69
2018-04-08T02:29:30.257Z,13.64
2018-04-08T02:30:30.274Z,13.59
2018-04-08T02:31:30.324Z,13.62
2018-04-08T02:32:30.230Z,13.64
2018-04-08T02:33:30.254Z,13.55
2018-04-08T02:34:30.209Z,13.63
2018-04-08T02:35:30.264Z,13.64
2018-04-08T02:36:30.174Z,13.62
2018-04-08T02:37:30.189Z,13.62
2018-04-08T02:38:30.157Z,13.52
2018-04-08T02:39:30.147Z,13.52
2018-04-08T02:40:30.193Z,13.54
2018-04-08T02:41:30.196Z,13.52
2018-04-08T02:42:30.123Z,13.54
2018-04-08T02:43:30.125Z,13.57
2018-04-08T02:44:30.094Z,13.52
2018-04-08T02:45:30.107Z,13.46
2018-04-08T02:46:30.218Z,13.44
2018-04-08T02:47:30.116Z,13.45
2018-04-08T02:48:30.168Z,13.46
2018-04-08T02:49:30.111Z,13.48
2018-04-08T02:50:30.084Z,13.48
2018-04-08T02:51:30.053Z,13.54
2018-04-08T02:52:30.051Z,13.46
2018-04-08T02:53:30.006Z,13.49
2018-04-08T02:54:30.011Z,13.49
2018-04-08T02:55:29.972Z,13.59
2018-04-08T02:56:30.040Z,13.60
2018-04-08T02:57:30.044Z,13.51
2018-04-08T02:58:30.039Z,13.57
2018-04-08T02:59:30.051Z,13.51
2018-04-08T03:00:29.955Z,13.55
2018-04-08T03:01:29.945Z,13.49
2018-04-08T03:02:29.917Z,13.63
2018-04-08T03:03:29.918Z,13.51
2018-04-08T03:04:29.997Z,13.51
2018-04-08T03:05:30.828Z,13.60
2018-04-08T03:06:29.879Z,13.62
2018-04-08T03:07:29.874Z,13.62
2018-04-08T03:08:29.887Z,13.59
2018-04-08T03:09:29.851Z,13.66
2018-04-08T03:10:30.886Z,13.71
2018-04-08T03:11:29.835Z,13.69
2018-04-08T03:12:29.796Z,13.60
2018-04-08T03:13:29.901Z,13.64
2018-04-08T03:14:29.788Z,13.55
2018-04-08T03:15:29.794Z,13.64
2018-04-08T03:16:30.364Z,13.63
2018-04-08T03:17:29.773Z,13.49
2018-04-08T03:18:29.797Z,13.54
2018-04-08T03:19:29.756Z,13.48
2018-04-08T03:20:29.726Z,13.62
2018-04-08T03:21:29.705Z,13.63
2018-04-08T03:22:29.698Z,13.52
2018-04-08T03:23:29.832Z,13.59
2018-04-08T03:24:29.718Z,13.59
2018-04-08T03:25:29.724Z,13.49
2018-04-08T03:26:29.658Z,13.57
2018-04-08T03:27:29.661Z,13.48
2018-04-08T03:28:29.642Z,13.55
2018-04-08T03:29:29.639Z,13.54
2018-04-08T03:30:29.646Z,13.52
2018-04-08T03:31:29.607Z,13.52
2018-04-08T03:32:29.738Z,13.52
2018-04-08T03:33:29.594Z,13.44
2018-04-08T03:34:29.595Z,13.51
2018-04-08T03:35:29.564Z,13.52
2018-04-08T03:36:29.629Z,13.49
2018-04-08T03:37:29.977Z,13.44
2018-04-08T03:38:29.615Z,13.42
2018-04-08T03:39:29.612Z,13.48
2018-04-08T03:40:29.516Z,13.48
2018-04-08T03:41:29.509Z,13.48
2018-04-08T03:42:29.500Z,13.42
2018-04-08T03:43:30.371Z,13.42
2018-04-08T03:44:29.491Z,13.46
2018-04-08T03:45:29.439Z,13.41
2018-04-08T03:46:29.457Z,13.39
2018-04-08T03:47:29.457Z,13.39
2018-04-08T03:48:30.380Z,13.49
2018-04-08T03:49:29.411Z,13.45
2018-04-08T03:50:29.447Z,13.42
2018-04-08T03:51:29.411Z,13.38
2018-04-08T03:52:29.380Z,13.39
2018-04-08T03:53:29.362Z,13.41
2018-04-08T03:54:29.359Z,13.42
2018-04-08T03:55:29.383Z,13.44
2018-04-08T03:56:29.336Z,13.41
2018-04-08T03:57:29.316Z,13.42
2018-04-08T03:58:29.320Z,13.36
2018-04-08T03:59:29.298Z,13.29
2018-04-08T04:00:29.364Z,13.28
2018-04-08T04:01:29.378Z,13.28
2018-04-08T04:02:29.294Z,13.30
2018-04-08T04:03:29.271Z,13.32
2018-04-08T04:04:29.247Z,13.28
2018-04-08T04:05:29.239Z,13.28
2018-04-08T04:06:29.242Z,13.26
2018-04-08T04:07:29.281Z,13.15
2018-04-08T04:08:29.212Z,13.20
2018-04-08T04:09:29.198Z,13.19
2018-04-08T04:10:29.197Z,13.19
2018-04-08T04:11:29.174Z,13.10
2018-04-08T04:12:29.174Z,13.11
2018-04-08T04:13:29.153Z,13.07
2018-04-08T04:14:29.140Z,12.95
2018-04-08T04:15:29.144Z,13.00
2018-04-08T04:16:29.167Z,13.05
2018-04-08T04:17:29.114Z,13.07
2018-04-08T04:18:29.133Z,12.95
2018-04-08T04:19:29.425Z,12.95
2018-04-08T04:20:29.068Z,13.03
2018-04-08T04:21:29.065Z,12.92
2018-04-08T04:22:29.038Z,13.04
2018-04-08T04:23:29.031Z,13.00
2018-04-08T04:24:29.424Z,13.01
2018-04-08T04:25:29.078Z,13.00
2018-04-08T04:26:29.013Z,13.01
2018-04-08T04:27:28.995Z,12.95
2018-04-08T04:28:28.964Z,12.97
2018-04-08T04:29:29.015Z,13.01
2018-04-08T04:30:29.003Z,13.01
2018-04-08T04:31:28.947Z,12.97
2018-04-08T04:32:28.927Z,13.01
2018-04-08T04:33:28.929Z,13.01
2018-04-08T04:34:28.896Z,12.97
2018-04-08T04:35:29.073Z,12.92
2018-04-08T04:36:28.884Z,12.87
2018-04-08T04:37:28.889Z,12.83
2018-04-08T04:38:28.864Z,12.77
2018-04-08T04:39:28.858Z,12.65
2018-04-08T04:40:28.831Z,12.77
2018-04-08T04:41:29.116Z,12.67
2018-04-08T04:42:28.842Z,12.75
2018-04-08T04:43:28.813Z,12.77
2018-04-08T04:44:28.801Z,12.74
2018-04-08T04:45:28.780Z,12.71
2018-04-08T04:46:28.781Z,12.74
2018-04-08T04:47:28.914Z,12.71
2018-04-08T04:48:28.753Z,12.57
2018-04-08T04:49:28.752Z,12.59
2018-04-08T04:50:28.730Z,12.47
2018-04-08T04:51:28.742Z,12.42
2018-04-08T04:52:28.728Z,12.45
2018-04-08T04:53:28.736Z,12.57
2018-04-08T04:54:28.713Z,12.54
2018-04-08T04:55:28.672Z,12.56
2018-04-08T04:56:28.684Z,12.53
2018-04-08T04:57:28.666Z,12.47
2018-04-08T04:58:28.714Z,12.39
2018-04-08T04:59:28.645Z,12.39
2018-04-08T05:00:28.619Z,12.47
2018-04-08T05:01:28.605Z,12.52
2018-04-08T05:02:28.590Z,12.53
2018-04-08T05:03:28.578Z,12.56
2018-04-08T05:04:28.599Z,12.54
2018-04-08T05:05:28.552Z,12.39
2018-04-08T05:06:28.565Z,12.42
2018-04-08T05:07:28.543Z,12.42
2018-04-08T05:08:28.524Z,12.37
2018-04-08T05:09:28.533Z,12.41
2018-04-08T05:10:28.511Z,12.45
2018-04-08T05:11:28.497Z,12.35
2018-04-08T05:12:28.538Z,12.31
2018-04-08T05:13:28.522Z,12.16
2018-04-08T05:14:28.470Z,12.28
2018-04-08T05:15:28.443Z,12.31
2018-04-08T05:16:28.465Z,12.32
2018-04-08T05:17:28.428Z,12.37
2018-04-08T05:18:28.408Z,12.23
2018-04-08T05:19:28.439Z,12.24
2018-04-08T05:20:28.409Z,12.37
2018-04-08T05:21:28.407Z,12.28
2018-04-08T05:22:28.363Z,12.24
2018-04-08T05:23:28.428Z,12.23
2018-04-08T05:24:28.360Z,12.27
2018-04-08T05:25:28.336Z,12.27
2018-04-08T05:26:28.332Z,12.32
2018-04-08T05:27:28.330Z,12.27
2018-04-08T05:28:28.297Z,12.24
2018-04-08T05:29:28.331Z,12.24
2018-04-08T05:30:28.274Z,12.28
2018-04-08T05:31:28.286Z,12.27
2018-04-08T05:32:28.260Z,12.19
2018-04-08T05:33:28.313Z,12.32
2018-04-08T05:34:28.241Z,12.32
2018-04-08T05:35:28.223Z,12.29
2018-04-08T05:36:28.222Z,12.41
2018-04-08T05:37:28.224Z,12.37
2018-04-08T05:38:28.217Z,12.35
2018-04-08T05:39:28.200Z,12.29
2018-04-08T05:40:28.191Z,12.41
2018-04-08T05:41:28.156Z,12.37
2018-04-08T05:42:28.152Z,12.37
2018-04-08T05:43:28.155Z,12.38
2018-04-08T05:44:28.130Z,12.37
2018-04-08T05:45:28.143Z,12.39
2018-04-08T05:46:28.100Z,12.37
2018-04-08T05:47:28.119Z,12.47
2018-04-08T05:48:28.079Z,12.41
2018-04-08T05:49:28.088Z,12.42
2018-04-08T05:50:28.056Z,12.42
2018-04-08T05:51:28.073Z,12.54
2018-04-08T05:52:28.049Z,12.56
2018-04-08T05:53:28.052Z,12.50
2018-04-08T05:54:28.012Z,12.54
2018-04-08T05:55:27.995Z,12.57
2018-04-08T05:56:27.997Z,12.46
2018-04-08T05:57:28.013Z,12.57
2018-04-08T05:58:27.970Z,12.56
2018-04-08T05:59:27.970Z,12.59
2018-04-08T06:00:27.961Z,12.70
2018-04-08T06:01:27.957Z,12.74
2018-04-08T06:02:27.964Z,12.75
2018-04-08T06:03:27.906Z,12.70
2018-04-08T06:04:28.286Z,12.82
2018-04-08T06:05:27.891Z,12.83
2018-04-08T06:06:27.910Z,12.93
2018-04-08T06:07:27.870Z,12.83
2018-04-08T06:08:27.862Z,12.93
2018-04-08T06:09:27.865Z,13.01
2018-04-08T06:10:27.870Z,13.00
2018-04-08T06:11:27.826Z,12.96
2018-04-08T06:12:27.865Z,12.96
2018-04-08T06:13:27.797Z,12.96
2018-04-08T06:14:27.786Z,12.95
2018-04-08T06:15:27.797Z,13.07
2018-04-08T06:16:27.765Z,13.07
2018-04-08T06:17:27.810Z,13.15
2018-04-08T06:18:27.760Z,13.20
2018-04-08T06:19:27.745Z,13.26
2018-04-08T06:20:27.738Z,13.26
2018-04-08T06:21:27.754Z,13.38
2018-04-08T06:22:27.766Z,13.38
2018-04-08T06:23:27.705Z,13.25
2018-04-08T06:24:27.733Z,13.44
2018-04-08T06:25:27.696Z,13.49
2018-04-08T06:26:27.665Z,13.49
2018-04-08T06:27:27.650Z,13.54
2018-04-08T06:28:27.650Z,13.48
2018-04-08T06:29:27.660Z,13.59
2018-04-08T06:30:27.655Z,13.52
2018-04-08T06:31:27.612Z,13.46
2018-04-08T06:32:27.636Z,13.49
2018-04-08T06:33:27.601Z,13.52
2018-04-08T06:34:27.586Z,13.57
2018-04-08T06:35:27.602Z,13.63
2018-04-08T06:36:27.582Z,13.66
2018-04-08T06:37:27.573Z,13.70
2018-04-08T06:38:27.539Z,13.75
2018-04-08T06:39:27.570Z,13.77
2018-04-08T06:40:27.570Z,13.85
2018-04-08T06:41:27.535Z,13.78
2018-04-08T06:42:27.511Z,13.85
2018-04-08T06:43:27.492Z,13.96
2018-04-08T06:44:27.492Z,13.92
2018-04-08T06:45:27.498Z,14.04
2018-04-08T06:46:27.495Z,14.12
2018-04-08T06:47:27.479Z,14.12
2018-04-08T06:48:27.452Z,14.17
2018-04-08T06:49:27.482Z,14.18
2018-04-08T06:50:27.424Z,14.20
2018-04-08T06:51:27.442Z,14.29
2018-04-08T06:52:27.419Z,14.32
2018-04-08T06:53:27.414Z,14.36
2018-04-08T06:54:27.382Z,14.39
2018-04-08T06:55:27.393Z,14.46
2018-04-08T06:56:27.412Z,14.45
2018-04-08T06:57:27.383Z,14.50
2018-04-08T06:58:27.386Z,14.45
2018-04-08T06:59:27.333Z,14.57
2018-04-08T07:00:27.350Z,14.65
2018-04-08T07:01:27.388Z,14.61
2018-04-08T07:02:27.330Z,14.62
2018-04-08T07:03:27.316Z,14.68
2018-04-08T07:04:27.298Z,14.75
2018-04-08T07:05:27.281Z,14.83
2018-04-08T07:06:27.285Z,14.86
2018-04-08T07:07:27.305Z,14.89
2018-04-08T07:08:27.453Z,14.86
2018-04-08T07:09:27.260Z,14.92
2018-04-08T07:10:27.248Z,14.81
2018-04-08T07:11:27.235Z,14.81
2018-04-08T07:12:27.228Z,14.88
2018-04-08T07:13:27.221Z,14.91
2018-04-08T07:14:27.264Z,14.88
2018-04-08T07:15:27.193Z,14.92
2018-04-08T07:16:27.175Z,14.96
2018-04-08T07:17:27.172Z,14.99
2018-04-08T07:18:27.213Z,14.99
2018-04-08T07:19:27.161Z,15.07
2018-04-08T07:20:27.159Z,15.01
2018-04-08T07:21:27.157Z,15.17
2018-04-08T07:22:27.123Z,15.19
2018-04-08T07:23:27.152Z,15.11
2018-04-08T07:24:27.104Z,15.23
2018-04-08T07:25:27.118Z,15.20
2018-04-08T07:26:27.087Z,15.31
2018-04-08T07:27:27.089Z,15.20
2018-04-08T07:28:27.076Z,15.34
2018-04-08T07:29:27.080Z,15.32
2018-04-08T07:30:27.122Z,15.51
2018-04-08T07:31:27.043Z,15.50
2018-04-08T07:32:27.039Z,15.50
2018-04-08T07:33:27.042Z,15.65
2018-04-08T07:34:27.048Z,15.54
2018-04-08T07:35:27.094Z,15.64
2018-04-08T07:36:27.013Z,15.80
2018-04-08T07:37:27.003Z,15.75
2018-04-08T07:38:26.993Z,15.82
2018-04-08T07:39:26.979Z,16.01
2018-04-08T07:40:26.973Z,16.04
2018-04-08T07:41:26.992Z,16.08
2018-04-08T07:42:26.967Z,16.14
2018-04-08T07:43:26.953Z,16.24
2018-04-08T07:44:26.949Z,16.28
2018-04-08T07:45:26.937Z,16.31
2018-04-08T07:46:26.946Z,16.31
2018-04-08T07:47:26.973Z,16.39
2018-04-08T07:48:26.935Z,16.53
2018-04-08T07:49:26.896Z,16.64
2018-04-08T07:50:26.928Z,16.70
2018-04-08T07:51:26.876Z,16.76
2018-04-08T07:52:26.901Z,16.89
2018-04-08T07:53:26.968Z,16.94
2018-04-08T07:54:26.887Z,16.97
2018-04-08T07:55:26.871Z,17.08
2018-04-08T07:56:26.925Z,17.23
2018-04-08T07:57:27.453Z,17.12
2018-04-08T07:58:26.837Z,17.21
2018-04-08T07:59:27.290Z,17.30
2018-04-08T08:00:26.832Z,17.26
2018-04-08T08:01:26.815Z,17.46
2018-04-08T08:02:26.809Z,17.40
2018-04-08T08:03:26.825Z,17.54
2018-04-08T08:04:26.800Z,17.46
2018-04-08T08:05:27.643Z,17.44
2018-04-08T08:06:27.398Z,17.52
2018-04-08T08:07:27.441Z,17.54
2018-04-08T08:08:27.607Z,17.59
2018-04-08T08:09:27.999Z,17.66
2018-04-08T08:10:27.512Z,17.71
2018-04-08T08:11:28.001Z,17.70
2018-04-08T08:12:27.492Z,17.77
2018-04-08T08:13:27.578Z,17.79
2018-04-08T08:14:27.504Z,17.77
2018-04-08T08:15:27.384Z,17.86
2018-04-08T08:16:28.441Z,17.92
2018-04-08T08:17:27.333Z,17.95
2018-04-08T08:18:27.491Z,18.00
2018-04-08T08:19:27.347Z,18.00
2018-04-08T08:20:27.462Z,17.97
2018-04-08T08:21:27.520Z,17.97
2018-04-08T08:22:27.866Z,18.00
2018-04-08T08:23:27.479Z,18.05
2018-04-08T08:24:27.338Z,18.08
2018-04-08T08:25:27.311Z,18.12
2018-04-08T08:26:27.468Z,18.18
2018-04-08T08:27:27.300Z,18.20
2018-04-08T08:28:27.451Z,18.17
2018-04-08T08:29:28.206Z,18.30
2018-04-08T08:30:27.376Z,18.26
2018-04-08T08:31:27.346Z,18.33
2018-04-08T08:32:27.412Z,18.42
2018-04-08T08:33:27.411Z,18.47
2018-04-08T08:34:27.248Z,18.51
2018-04-08T08:35:27.274Z,18.48
2018-04-08T08:36:27.311Z,18.52
2018-04-08T08:37:27.347Z,18.55
2018-04-08T08:38:27.386Z,18.55
2018-04-08T08:39:27.414Z,18.47
2018-04-08T08:40:27.811Z,18.52
2018-04-08T08:41:27.193Z,18.52
2018-04-08T08:42:27.275Z,18.57
2018-04-08T08:43:27.270Z,18.51
2018-04-08T08:44:27.294Z,18.63
2018-04-08T08:45:26.592Z,18.65
2018-04-08T08:46:28.021Z,18.69
2018-04-08T08:47:27.381Z,18.73
2018-04-08T08:48:27.287Z,18.75
2018-04-08T08:49:27.225Z,18.87
2018-04-08T08:50:27.295Z,18.87
2018-04-08T08:51:27.237Z,18.81
2018-04-08T08:52:27.301Z,18.88
2018-04-08T08:53:27.250Z,18.81
2018-04-08T08:54:27.302Z,18.88
2018-04-08T08:55:27.990Z,18.91
2018-04-08T08:56:27.156Z,18.91
2018-04-08T08:57:27.004Z,18.98
2018-04-08T08:58:27.190Z,19.07
2018-04-08T08:59:27.043Z,19.06
2018-04-08T09:00:27.187Z,19.06
2018-04-08T09:01:27.199Z,19.10
2018-04-08T09:02:27.176Z,19.19
2018-04-08T09:03:27.563Z,19.22
2018-04-08T09:04:27.183Z,19.29
2018-04-08T09:05:27.157Z,19.29
2018-04-08T09:06:27.186Z,19.33
2018-04-08T09:07:27.985Z,19.33
2018-04-08T09:08:27.151Z,19.39
2018-04-08T09:09:27.015Z,19.46
2018-04-08T09:10:27.220Z,19.40
2018-04-08T09:11:27.149Z,19.47
2018-04-08T09:12:27.131Z,19.48
2018-04-08T09:13:27.352Z,19.59
2018-04-08T09:14:27.277Z,19.58
2018-04-08T09:15:27.103Z,19.59
2018-04-08T09:16:27.120Z,19.66
2018-04-08T09:17:27.195Z,19.73
2018-04-08T09:18:27.309Z,19.69
2018-04-08T09:19:27.127Z,19.71
2018-04-08T09:20:27.130Z,19.80
2018-04-08T09:21:26.438Z,19.87
2018-04-08T09:22:26.428Z,19.80
2018-04-08T09:23:26.451Z,19.91
2018-04-08T09:24:26.411Z,19.91
2018-04-08T09:25:26.409Z,19.94
2018-04-08T09:26:26.455Z,20.02
2018-04-08T09:27:26.418Z,20.11
2018-04-08T09:28:26.446Z,20.13
2018-04-08T09:29:26.412Z,20.21
2018-04-08T09:30:26.387Z,20.36
2018-04-08T09:31:26.410Z,20.52
2018-04-08T09:32:26.390Z,20.55
2018-04-08T09:33:26.414Z,20.66
2018-04-08T09:34:26.379Z,20.77
2018-04-08T09:35:26.427Z,20.91
2018-04-08T09:36:26.436Z,20.98
2018-04-08T09:37:26.380Z,20.98
2018-04-08T09:38:26.441Z,21.10
2018-04-08T09:39:26.364Z,21.13
2018-04-08T09:40:26.362Z,21.24
2018-04-08T09:41:26.378Z,21.25
2018-04-08T09:42:26.359Z,21.35
2018-04-08T09:43:26.364Z,21.34
2018-04-08T09:44:26.385Z,21.34
2018-04-08T09:45:26.401Z,21.35
2018-04-08T09:46:27.043Z,21.50
2018-04-08T09:47:27.087Z,21.37
2018-04-08T09:48:26.912Z,21.35
2018-04-08T09:49:27.505Z,21.32
2018-04-08T09:50:26.356Z,21.34
2018-04-08T09:51:26.346Z,21.29
2018-04-08T09:52:26.356Z,21.46
2018-04-08T09:53:26.338Z,21.46
2018-04-08T09:54:26.372Z,21.49
2018-04-08T09:55:26.526Z,21.67
2018-04-08T09:56:26.355Z,21.74
2018-04-08T09:57:26.344Z,21.72
2018-04-08T09:58:26.369Z,21.61
2018-04-08T09:59:26.368Z,21.67
2018-04-08T10:00:26.360Z,21.49
2018-04-08T10:01:27.302Z,21.52
2018-04-08T10:02:27.027Z,21.54
2018-04-08T10:03:26.994Z,21.64
2018-04-08T10:04:26.354Z,21.65
2018-04-08T10:05:26.359Z,21.79
2018-04-08T10:06:26.333Z,21.80
2018-04-08T10:07:26.335Z,21.83
2018-04-08T10:08:26.332Z,21.90
2018-04-08T10:09:26.354Z,21.96
2018-04-08T10:10:26.332Z,22.00
2018-04-08T10:11:26.349Z,22.07
2018-04-08T10:12:26.383Z,22.06
2018-04-08T10:13:26.344Z,22.12
2018-04-08T10:14:26.345Z,22.21
2018-04-08T10:15:26.401Z,22.20
2018-04-08T10:16:26.326Z,22.31
2018-04-08T10:17:26.342Z,22.35
2018-04-08T10:18:26.333Z,22.43
2018-04-08T10:19:26.329Z,22.46
2018-04-08T10:20:26.348Z,22.47
2018-04-08T10:21:26.368Z,22.60
2018-04-08T10:22:27.001Z,22.65
2018-04-08T10:23:26.320Z,22.70
2018-04-08T10:24:26.349Z,22.82
2018-04-08T10:25:26.321Z,22.92
2018-04-08T10:26:26.373Z,23.10
2018-04-08T10:27:26.341Z,23.22
2018-04-08T10:28:26.346Z,23.25
2018-04-08T10:29:26.383Z,23.39
2018-04-08T10:30:26.341Z,23.53
2018-04-08T10:31:26.330Z,23.65
2018-04-08T10:32:26.337Z,23.69
2018-04-08T10:33:26.341Z,23.73
2018-04-08T10:34:26.335Z,23.84
2018-04-08T10:35:26.361Z,23.94
2018-04-08T10:36:26.363Z,24.06
2018-04-08T10:37:27.496Z,24.06
2018-04-08T10:38:26.339Z,24.12
2018-04-08T10:39:26.351Z,23.93
2018-04-08T10:40:26.336Z,23.75
2018-04-08T10:41:26.348Z,23.65
2018-04-08T10:42:26.334Z,23.57
2018-04-08T10:43:26.396Z,23.39
2018-04-08T10:44:26.370Z,23.38
2018-04-08T10:45:26.373Z,23.32
2018-04-08T10:46:26.361Z,23.39
2018-04-08T10:47:26.362Z,23.27
2018-04-08T10:48:26.370Z,23.17
2018-04-08T10:49:26.375Z,23.12
2018-04-08T10:50:26.385Z,23.10
2018-04-08T10:51:26.360Z,23.07
2018-04-08T10:52:26.387Z,23.19
2018-04-08T10:53:26.374Z,23.23
2018-04-08T10:54:26.364Z,23.20
2018-04-08T10:55:26.418Z,23.33
2018-04-08T10:56:26.355Z,23.55
2018-04-08T10:57:26.361Z,23.65
2018-04-08T10:58:26.357Z,23.83
2018-04-08T10:59:26.381Z,23.94
2018-04-08T11:00:26.357Z,23.98
2018-04-08T11:01:26.431Z,23.98
2018-04-08T11:02:26.369Z,23.66
2018-04-08T11:03:26.370Z,23.57
2018-04-08T11:04:26.351Z,23.47
2018-04-08T11:05:26.379Z,23.54
2018-04-08T11:06:26.396Z,23.55
2018-04-08T11:07:26.393Z,23.75
2018-04-08T11:08:26.391Z,23.72
2018-04-08T11:09:26.355Z,23.58
2018-04-08T11:10:26.381Z,23.46
2018-04-08T11:11:26.373Z,23.55
2018-04-08T11:12:26.411Z,23.72
2018-04-08T11:13:26.411Z,23.80
2018-04-08T11:14:26.368Z,23.98
2018-04-08T11:15:26.440Z,24.10
2018-04-08T11:16:26.367Z,24.18
2018-04-08T11:17:26.365Z,24.20
2018-04-08T11:18:26.379Z,23.97
2018-04-08T11:19:26.382Z,23.93
2018-04-08T11:20:26.385Z,23.85
2018-04-08T11:21:26.384Z,23.87
2018-04-08T11:22:26.407Z,23.91
2018-04-08T11:23:26.368Z,23.93
2018-04-08T11:24:26.381Z,24.05
2018-04-08T11:25:26.409Z,24.06
2018-04-08T11:26:26.385Z,24.15
2018-04-08T11:27:26.368Z,24.16
2018-04-08T11:28:26.383Z,24.13
2018-04-08T11:29:26.403Z,24.00
2018-04-08T11:30:26.444Z,24.08
2018-04-08T11:31:26.398Z,24.10
2018-04-08T11:32:26.418Z,24.31
2018-04-08T11:33:26.380Z,24.34
2018-04-08T11:34:26.392Z,24.55
2018-04-08T11:35:26.383Z,24.67
2018-04-08T11:36:26.375Z,24.73
2018-04-08T11:37:26.405Z,24.88
2018-04-08T11:38:26.397Z,25.02
2018-04-08T11:39:26.377Z,24.91
2018-04-08T11:40:26.379Z,24.95
2018-04-08T11:41:26.375Z,25.05
2018-04-08T11:42:26.472Z,25.10
2018-04-08T11:43:26.405Z,25.13
2018-04-08T11:44:26.387Z,25.18
2018-04-08T11:45:26.377Z,25.23
2018-04-08T11:46:26.384Z,25.39
2018-04-08T11:47:26.385Z,25.45
2018-04-08T11:48:26.387Z,25.57
2018-04-08T11:49:26.393Z,25.60
2018-04-08T11:50:26.389Z,25.52
2018-04-08T11:51:26.403Z,25.27
2018-04-08T11:52:26.646Z,25.33
2018-04-08T11:53:26.397Z,25.32
2018-04-08T11:54:26.409Z,25.47
2018-04-08T11:55:26.407Z,25.61
2018-04-08T11:56:26.430Z,25.70
2018-04-08T11:57:26.404Z,25.82
2018-04-08T11:58:26.414Z,25.91
2018-04-08T11:59:26.450Z,25.85
2018-04-08T12:00:26.427Z,25.85
2018-04-08T12:01:26.428Z,25.97
2018-04-08T12:02:26.420Z,26.01
2018-04-08T12:03:26.441Z,26.12
2018-04-08T12:04:26.467Z,26.21
2018-04-08T12:05:26.453Z,26.33
2018-04-08T12:06:26.438Z,26.69
2018-04-08T12:07:26.451Z,27.17
2018-04-08T12:08:26.443Z,27.51
2018-04-08T12:09:26.469Z,27.93
2018-04-08T12:10:26.482Z,28.18
2018-04-08T12:11:26.460Z,28.56
2018-04-08T12:12:26.465Z,28.73
2018-04-08T12:13:26.478Z,29.04
2018-04-08T12:14:26.464Z,29.27
2018-04-08T12:15:26.478Z,29.21
2018-04-08T12:16:26.482Z,28.83
2018-04-08T12:17:26.515Z,28.78
2018-04-08T12:18:26.500Z,28.64
2018-04-08T12:19:26.492Z,28.76
2018-04-08T12:20:26.497Z,28.96
2018-04-08T12:21:26.509Z,29.24
2018-04-08T12:22:26.561Z,29.37
2018-04-08T12:23:26.537Z,29.42
2018-04-08T12:24:26.532Z,29.45
2018-04-08T12:25:26.557Z,29.42
2018-04-08T12:26:26.560Z,29.51
2018-04-08T12:27:26.603Z,29.61
2018-04-08T12:28:26.559Z,29.61
2018-04-08T12:29:26.609Z,29.60
2018-04-08T12:30:26.594Z,29.60
2018-04-08T12:31:26.602Z,29.76
2018-04-08T12:32:26.612Z,30.00
2018-04-08T12:33:26.620Z,30.10
2018-04-08T12:34:26.628Z,30.11
2018-04-08T12:35:26.614Z,30.24
2018-04-08T12:36:26.645Z,30.27
2018-04-08T12:37:26.650Z,30.31
2018-04-08T12:38:26.634Z,30.42
2018-04-08T12:39:26.728Z,30.23
2018-04-08T12:40:26.660Z,30.02
2018-04-08T12:41:26.762Z,29.85
2018-04-08T12:42:26.687Z,29.95
2018-04-08T12:43:26.686Z,30.15
2018-04-08T12:44:26.703Z,30.29
2018-04-08T12:45:26.718Z,30.43
2018-04-08T12:46:26.745Z,30.61
2018-04-08T12:47:26.733Z,30.72
2018-04-08T12:48:26.746Z,30.94
2018-04-08T12:49:26.729Z,30.98
2018-04-08T12:50:26.736Z,31.06
2018-04-08T12:51:26.802Z,31.14
2018-04-08T12:52:26.780Z,30.86